Fargo (FAR/KFAR)

Map

Destinations

Information

Location
Fargo, ND
Local Time
20:46 / 8:46 pm
GMT Time
02:46 / 2:46 am
Gates
Unassigned
No FAA reported delays
METAR KFAR 170153Z AUTO 19005KT 10SM CLR M13/M14 A3005 RMK AO2 SLP199 T11281144
TAF KFAR 162340Z 1700/1724 27004KT P6SM FEW250 FM170700 29005KT 6SM BR FEW150 FM171400 23004KT P6SM FEW110 FM171700 20008KT P6SM FEW110 FM172200 18012KT P6SM SCT080
  • No charts available